sensor_id;sensor_type;location;lat;lon;timestamp;P1;durP1;ratioP1;P2;durP2;ratioP2
56307;SDS011;42217;50.422;7.210;2024-03-06T00:02:25;3.60;;;2.67;;
56307;SDS011;42217;50.422;7.210;2024-03-06T00:04:51;2.50;;;2.17;;
56307;SDS011;42217;50.422;7.210;2024-03-06T00:07:16;3.67;;;2.50;;
56307;SDS011;42217;50.422;7.210;2024-03-06T00:09:42;2.23;;;2.03;;
56307;SDS011;42217;50.422;7.210;2024-03-06T00:12:08;4.00;;;2.87;;
56307;SDS011;42217;50.422;7.210;2024-03-06T00:14:33;3.60;;;2.77;;
56307;SDS011;42217;50.422;7.210;2024-03-06T00:17:01;4.67;;;2.63;;
56307;SDS011;42217;50.422;7.210;2024-03-06T00:19:29;2.80;;;2.37;;
56307;SDS011;42217;50.422;7.210;2024-03-06T00:21:55;4.67;;;2.03;;
56307;SDS011;42217;50.422;7.210;2024-03-06T00:24:21;3.40;;;2.40;;
56307;SDS011;42217;50.422;7.210;2024-03-06T00:26:48;7.63;;;2.60;;
56307;SDS011;42217;50.422;7.210;2024-03-06T00:29:14;4.40;;;2.60;;
56307;SDS011;42217;50.422;7.210;2024-03-06T00:31:43;3.90;;;2.60;;
56307;SDS011;42217;50.422;7.210;2024-03-06T00:34:10;3.33;;;2.93;;
56307;SDS011;42217;50.422;7.210;2024-03-06T00:36:39;2.90;;;2.57;;
56307;SDS011;42217;50.422;7.210;2024-03-06T00:39:05;2.53;;;2.33;;
56307;SDS011;42217;50.422;7.210;2024-03-06T00:41:30;3.23;;;2.93;;
56307;SDS011;42217;50.422;7.210;2024-03-06T00:43:56;3.30;;;3.10;;
56307;SDS011;42217;50.422;7.210;2024-03-06T00:46:22;3.07;;;2.70;;
56307;SDS011;42217;50.422;7.210;2024-03-06T00:48:48;3.67;;;2.30;;
56307;SDS011;42217;50.422;7.210;2024-03-06T00:51:14;2.43;;;2.23;;
56307;SDS011;42217;50.422;7.210;2024-03-06T00:53:40;3.47;;;3.00;;
56307;SDS011;42217;50.422;7.210;2024-03-06T00:56:06;6.53;;;2.97;;
56307;SDS011;42217;50.422;7.210;2024-03-06T00:58:32;11.70;;;5.33;;
56307;SDS011;42217;50.422;7.210;2024-03-06T01:00:58;5.40;;;2.83;;
56307;SDS011;42217;50.422;7.210;2024-03-06T01:03:24;10.70;;;3.00;;
56307;SDS011;42217;50.422;7.210;2024-03-06T01:05:50;4.93;;;3.00;;
56307;SDS011;42217;50.422;7.210;2024-03-06T01:08:17;6.20;;;2.80;;
56307;SDS011;42217;50.422;7.210;2024-03-06T01:10:43;2.50;;;2.30;;
56307;SDS011;42217;50.422;7.210;2024-03-06T01:13:09;9.57;;;3.67;;
56307;SDS011;42217;50.422;7.210;2024-03-06T01:15:36;3.53;;;3.23;;
56307;SDS011;42217;50.422;7.210;2024-03-06T01:18:02;3.83;;;2.70;;
56307;SDS011;42217;50.422;7.210;2024-03-06T01:20:28;3.63;;;2.67;;
56307;SDS011;42217;50.422;7.210;2024-03-06T01:22:54;4.00;;;2.87;;
56307;SDS011;42217;50.422;7.210;2024-03-06T01:25:19;4.40;;;3.50;;
56307;SDS011;42217;50.422;7.210;2024-03-06T01:27:47;2.83;;;2.57;;
56307;SDS011;42217;50.422;7.210;2024-03-06T01:30:14;6.27;;;3.30;;
56307;SDS011;42217;50.422;7.210;2024-03-06T01:32:39;4.40;;;3.60;;
56307;SDS011;42217;50.422;7.210;2024-03-06T01:35:05;5.43;;;3.20;;
56307;SDS011;42217;50.422;7.210;2024-03-06T01:37:31;3.63;;;3.40;;
56307;SDS011;42217;50.422;7.210;2024-03-06T01:39:57;4.50;;;3.07;;
56307;SDS011;42217;50.422;7.210;2024-03-06T01:42:23;2.87;;;2.67;;
56307;SDS011;42217;50.422;7.210;2024-03-06T01:44:49;3.63;;;2.87;;
56307;SDS011;42217;50.422;7.210;2024-03-06T01:47:15;5.00;;;2.73;;
56307;SDS011;42217;50.422;7.210;2024-03-06T01:49:41;6.93;;;3.57;;
56307;SDS011;42217;50.422;7.210;2024-03-06T01:52:07;3.47;;;3.10;;
56307;SDS011;42217;50.422;7.210;2024-03-06T01:54:36;6.57;;;3.13;;
56307;SDS011;42217;50.422;7.210;2024-03-06T01:57:03;4.40;;;3.60;;
56307;SDS011;42217;50.422;7.210;2024-03-06T01:59:31;3.43;;;3.13;;
56307;SDS011;42217;50.422;7.210;2024-03-06T02:01:57;3.70;;;3.27;;
56307;SDS011;42217;50.422;7.210;2024-03-06T02:04:25;3.53;;;3.23;;
56307;SDS011;42217;50.422;7.210;2024-03-06T02:06:53;4.07;;;3.13;;
56307;SDS011;42217;50.422;7.210;2024-03-06T02:09:18;3.23;;;2.93;;
56307;SDS011;42217;50.422;7.210;2024-03-06T02:11:45;3.97;;;3.50;;
56307;SDS011;42217;50.422;7.210;2024-03-06T02:14:10;3.73;;;3.43;;
56307;SDS011;42217;50.422;7.210;2024-03-06T02:16:37;3.87;;;3.53;;
56307;SDS011;42217;50.422;7.210;2024-03-06T02:19:06;6.83;;;4.17;;
56307;SDS011;42217;50.422;7.210;2024-03-06T02:21:33;5.80;;;3.80;;
56307;SDS011;42217;50.422;7.210;2024-03-06T02:23:59;8.03;;;4.30;;
56307;SDS011;42217;50.422;7.210;2024-03-06T02:26:24;7.03;;;4.30;;
56307;SDS011;42217;50.422;7.210;2024-03-06T02:28:50;5.13;;;4.43;;
56307;SDS011;42217;50.422;7.210;2024-03-06T02:31:18;5.07;;;4.03;;
56307;SDS011;42217;50.422;7.210;2024-03-06T02:33:48;6.53;;;4.23;;
56307;SDS011;42217;50.422;7.210;2024-03-06T02:36:17;4.57;;;4.10;;
56307;SDS011;42217;50.422;7.210;2024-03-06T02:38:43;7.27;;;4.00;;
56307;SDS011;42217;50.422;7.210;2024-03-06T02:41:10;5.17;;;3.90;;
56307;SDS011;42217;50.422;7.210;2024-03-06T02:43:36;5.47;;;3.87;;
56307;SDS011;42217;50.422;7.210;2024-03-06T02:46:02;4.20;;;3.73;;
56307;SDS011;42217;50.422;7.210;2024-03-06T02:48:28;4.27;;;3.87;;
56307;SDS011;42217;50.422;7.210;2024-03-06T02:50:54;8.30;;;3.73;;
56307;SDS011;42217;50.422;7.210;2024-03-06T02:53:20;4.43;;;4.13;;
56307;SDS011;42217;50.422;7.210;2024-03-06T02:55:46;4.17;;;3.77;;
56307;SDS011;42217;50.422;7.210;2024-03-06T02:58:12;6.17;;;3.70;;
56307;SDS011;42217;50.422;7.210;2024-03-06T03:00:39;4.17;;;3.40;;
56307;SDS011;42217;50.422;7.210;2024-03-06T03:03:06;3.47;;;3.17;;
56307;SDS011;42217;50.422;7.210;2024-03-06T03:05:31;3.40;;;3.10;;
56307;SDS011;42217;50.422;7.210;2024-03-06T03:07:58;5.63;;;3.37;;
56307;SDS011;42217;50.422;7.210;2024-03-06T03:10:24;4.87;;;3.70;;
56307;SDS011;42217;50.422;7.210;2024-03-06T03:12:51;4.10;;;3.53;;
56307;SDS011;42217;50.422;7.210;2024-03-06T03:15:17;10.97;;;3.87;;
56307;SDS011;42217;50.422;7.210;2024-03-06T03:17:42;3.77;;;3.40;;
56307;SDS011;42217;50.422;7.210;2024-03-06T03:20:08;5.07;;;2.97;;
56307;SDS011;42217;50.422;7.210;2024-03-06T03:22:38;4.43;;;3.10;;
56307;SDS011;42217;50.422;7.210;2024-03-06T03:25:13;8.00;;;3.43;;
56307;SDS011;42217;50.422;7.210;2024-03-06T03:27:39;5.77;;;3.17;;
56307;SDS011;42217;50.422;7.210;2024-03-06T03:30:11;6.43;;;3.90;;
56307;SDS011;42217;50.422;7.210;2024-03-06T03:32:37;3.83;;;3.47;;
56307;SDS011;42217;50.422;7.210;2024-03-06T03:35:04;6.10;;;3.70;;
56307;SDS011;42217;50.422;7.210;2024-03-06T03:37:30;3.43;;;3.03;;
56307;SDS011;42217;50.422;7.210;2024-03-06T03:39:56;3.97;;;3.67;;
56307;SDS011;42217;50.422;7.210;2024-03-06T03:42:22;6.10;;;3.30;;
56307;SDS011;42217;50.422;7.210;2024-03-06T03:44:48;4.10;;;3.80;;
56307;SDS011;42217;50.422;7.210;2024-03-06T03:47:13;3.73;;;3.37;;
56307;SDS011;42217;50.422;7.210;2024-03-06T03:49:39;5.30;;;3.40;;
56307;SDS011;42217;50.422;7.210;2024-03-06T03:52:05;3.97;;;3.50;;
56307;SDS011;42217;50.422;7.210;2024-03-06T03:54:31;5.80;;;3.63;;
56307;SDS011;42217;50.422;7.210;2024-03-06T03:56:57;4.13;;;3.50;;
56307;SDS011;42217;50.422;7.210;2024-03-06T03:59:24;5.17;;;4.07;;
56307;SDS011;42217;50.422;7.210;2024-03-06T04:01:50;4.23;;;3.83;;
56307;SDS011;42217;50.422;7.210;2024-03-06T04:04:16;10.37;;;3.90;;
56307;SDS011;42217;50.422;7.210;2024-03-06T04:06:42;6.27;;;3.33;;
56307;SDS011;42217;50.422;7.210;2024-03-06T04:09:08;8.23;;;3.90;;
56307;SDS011;42217;50.422;7.210;2024-03-06T04:11:36;3.30;;;2.90;;
56307;SDS011;42217;50.422;7.210;2024-03-06T04:14:05;4.47;;;3.20;;
56307;SDS011;42217;50.422;7.210;2024-03-06T04:16:31;4.13;;;3.00;;
56307;SDS011;42217;50.422;7.210;2024-03-06T04:18:58;7.33;;;3.83;;
56307;SDS011;42217;50.422;7.210;2024-03-06T04:21:23;5.40;;;3.13;;
56307;SDS011;42217;50.422;7.210;2024-03-06T04:23:49;6.73;;;3.30;;
56307;SDS011;42217;50.422;7.210;2024-03-06T04:26:15;4.03;;;3.73;;
56307;SDS011;42217;50.422;7.210;2024-03-06T04:28:42;8.17;;;3.07;;
56307;SDS011;42217;50.422;7.210;2024-03-06T04:31:08;5.03;;;3.07;;
56307;SDS011;42217;50.422;7.210;2024-03-06T04:33:35;3.90;;;2.77;;
56307;SDS011;42217;50.422;7.210;2024-03-06T04:36:04;5.20;;;3.67;;
56307;SDS011;42217;50.422;7.210;2024-03-06T04:38:33;6.82;;;3.00;;
56307;SDS011;42217;50.422;7.210;2024-03-06T04:40:59;6.27;;;3.57;;
56307;SDS011;42217;50.422;7.210;2024-03-06T04:43:25;5.10;;;3.40;;
56307;SDS011;42217;50.422;7.210;2024-03-06T04:45:50;3.13;;;2.93;;
56307;SDS011;42217;50.422;7.210;2024-03-06T04:48:16;5.27;;;3.90;;
56307;SDS011;42217;50.422;7.210;2024-03-06T04:50:42;10.50;;;4.70;;
56307;SDS011;42217;50.422;7.210;2024-03-06T04:53:09;11.43;;;5.37;;
56307;SDS011;42217;50.422;7.210;2024-03-06T04:55:35;3.83;;;2.83;;
56307;SDS011;42217;50.422;7.210;2024-03-06T04:58:02;4.87;;;3.10;;
56307;SDS011;42217;50.422;7.210;2024-03-06T05:00:28;3.33;;;3.03;;
56307;SDS011;42217;50.422;7.210;2024-03-06T05:02:54;4.47;;;2.97;;
56307;SDS011;42217;50.422;7.210;2024-03-06T05:05:21;4.07;;;2.77;;
56307;SDS011;42217;50.422;7.210;2024-03-06T05:07:47;2.80;;;2.60;;
56307;SDS011;42217;50.422;7.210;2024-03-06T05:10:13;5.57;;;4.07;;
56307;SDS011;42217;50.422;7.210;2024-03-06T05:12:40;5.10;;;4.07;;
56307;SDS011;42217;50.422;7.210;2024-03-06T05:15:06;5.60;;;3.90;;
56307;SDS011;42217;50.422;7.210;2024-03-06T05:17:33;9.00;;;4.47;;
56307;SDS011;42217;50.422;7.210;2024-03-06T05:19:59;15.03;;;5.20;;
56307;SDS011;42217;50.422;7.210;2024-03-06T05:22:25;12.37;;;6.23;;
56307;SDS011;42217;50.422;7.210;2024-03-06T05:24:51;5.13;;;3.80;;
56307;SDS011;42217;50.422;7.210;2024-03-06T05:27:18;9.30;;;5.30;;
56307;SDS011;42217;50.422;7.210;2024-03-06T05:29:44;13.83;;;8.57;;
56307;SDS011;42217;50.422;7.210;2024-03-06T05:32:09;12.30;;;8.53;;
56307;SDS011;42217;50.422;7.210;2024-03-06T05:34:35;19.90;;;9.60;;
56307;SDS011;42217;50.422;7.210;2024-03-06T05:37:01;11.80;;;7.73;;
56307;SDS011;42217;50.422;7.210;2024-03-06T05:39:29;17.97;;;10.00;;
56307;SDS011;42217;50.422;7.210;2024-03-06T05:42:02;6.13;;;5.03;;
56307;SDS011;42217;50.422;7.210;2024-03-06T05:44:31;3.50;;;3.20;;
56307;SDS011;42217;50.422;7.210;2024-03-06T05:47:00;9.57;;;5.70;;
56307;SDS011;42217;50.422;7.210;2024-03-06T05:49:27;10.13;;;7.83;;
56307;SDS011;42217;50.422;7.210;2024-03-06T05:51:54;14.67;;;5.17;;
56307;SDS011;42217;50.422;7.210;2024-03-06T05:54:21;17.53;;;6.10;;
56307;SDS011;42217;50.422;7.210;2024-03-06T05:56:47;6.83;;;3.70;;
56307;SDS011;42217;50.422;7.210;2024-03-06T05:59:14;3.43;;;3.13;;
56307;SDS011;42217;50.422;7.210;2024-03-06T06:01:40;10.67;;;4.30;;
56307;SDS011;42217;50.422;7.210;2024-03-06T06:04:07;12.60;;;4.97;;
56307;SDS011;42217;50.422;7.210;2024-03-06T06:06:36;21.40;;;5.87;;
56307;SDS011;42217;50.422;7.210;2024-03-06T06:09:02;19.63;;;6.57;;
56307;SDS011;42217;50.422;7.210;2024-03-06T06:11:32;13.03;;;6.63;;
56307;SDS011;42217;50.422;7.210;2024-03-06T06:14:01;12.73;;;7.13;;
56307;SDS011;42217;50.422;7.210;2024-03-06T06:16:27;11.73;;;6.77;;
56307;SDS011;42217;50.422;7.210;2024-03-06T06:18:59;11.63;;;4.95;;
56307;SDS011;42217;50.422;7.210;2024-03-06T06:21:25;14.10;;;11.40;;
56307;SDS011;42217;50.422;7.210;2024-03-06T06:23:50;17.77;;;11.83;;
56307;SDS011;42217;50.422;7.210;2024-03-06T06:26:16;13.90;;;9.00;;
56307;SDS011;42217;50.422;7.210;2024-03-06T06:28:42;9.13;;;5.90;;
56307;SDS011;42217;50.422;7.210;2024-03-06T06:31:08;5.40;;;4.90;;
56307;SDS011;42217;50.422;7.210;2024-03-06T06:33:34;17.63;;;9.50;;
56307;SDS011;42217;50.422;7.210;2024-03-06T06:35:59;13.30;;;7.60;;
56307;SDS011;42217;50.422;7.210;2024-03-06T06:38:25;7.77;;;6.30;;
56307;SDS011;42217;50.422;7.210;2024-03-06T06:40:51;6.43;;;5.03;;
56307;SDS011;42217;50.422;7.210;2024-03-06T06:43:17;8.07;;;3.37;;
56307;SDS011;42217;50.422;7.210;2024-03-06T06:45:43;3.73;;;3.10;;
56307;SDS011;42217;50.422;7.210;2024-03-06T06:48:08;3.97;;;3.63;;
56307;SDS011;42217;50.422;7.210;2024-03-06T06:50:34;6.90;;;3.47;;
56307;SDS011;42217;50.422;7.210;2024-03-06T06:53:00;5.40;;;3.33;;
56307;SDS011;42217;50.422;7.210;2024-03-06T06:55:26;8.30;;;3.87;;
56307;SDS011;42217;50.422;7.210;2024-03-06T06:57:52;4.07;;;2.90;;
56307;SDS011;42217;50.422;7.210;2024-03-06T07:00:18;3.53;;;3.03;;
56307;SDS011;42217;50.422;7.210;2024-03-06T07:02:46;5.73;;;3.00;;
56307;SDS011;42217;50.422;7.210;2024-03-06T07:05:12;9.47;;;3.90;;
56307;SDS011;42217;50.422;7.210;2024-03-06T07:07:38;5.93;;;5.33;;
56307;SDS011;42217;50.422;7.210;2024-03-06T07:10:04;8.57;;;6.07;;
56307;SDS011;42217;50.422;7.210;2024-03-06T07:12:30;13.43;;;9.27;;
56307;SDS011;42217;50.422;7.210;2024-03-06T07:14:57;13.13;;;8.47;;
56307;SDS011;42217;50.422;7.210;2024-03-06T07:17:23;16.23;;;8.70;;
56307;SDS011;42217;50.422;7.210;2024-03-06T07:19:49;14.03;;;7.60;;
56307;SDS011;42217;50.422;7.210;2024-03-06T07:22:15;14.63;;;8.63;;
56307;SDS011;42217;50.422;7.210;2024-03-06T07:24:41;15.37;;;8.13;;
56307;SDS011;42217;50.422;7.210;2024-03-06T07:27:07;23.27;;;10.97;;
56307;SDS011;42217;50.422;7.210;2024-03-06T07:29:36;8.80;;;6.67;;
56307;SDS011;42217;50.422;7.210;2024-03-06T07:32:02;13.80;;;7.37;;
56307;SDS011;42217;50.422;7.210;2024-03-06T07:34:30;13.27;;;7.57;;
56307;SDS011;42217;50.422;7.210;2024-03-06T07:36:56;15.73;;;8.77;;
56307;SDS011;42217;50.422;7.210;2024-03-06T07:39:24;13.80;;;9.53;;
56307;SDS011;42217;50.422;7.210;2024-03-06T07:41:50;21.27;;;10.93;;
56307;SDS011;42217;50.422;7.210;2024-03-06T07:44:16;19.07;;;12.90;;
56307;SDS011;42217;50.422;7.210;2024-03-06T07:46:42;15.43;;;9.20;;
56307;SDS011;42217;50.422;7.210;2024-03-06T07:49:07;11.37;;;6.97;;
56307;SDS011;42217;50.422;7.210;2024-03-06T07:51:33;7.00;;;6.20;;
56307;SDS011;42217;50.422;7.210;2024-03-06T07:54:00;12.17;;;6.77;;
56307;SDS011;42217;50.422;7.210;2024-03-06T07:56:28;9.00;;;6.83;;
56307;SDS011;42217;50.422;7.210;2024-03-06T07:58:54;8.33;;;5.87;;
56307;SDS011;42217;50.422;7.210;2024-03-06T08:01:20;7.60;;;6.23;;
56307;SDS011;42217;50.422;7.210;2024-03-06T08:03:47;8.33;;;6.43;;
56307;SDS011;42217;50.422;7.210;2024-03-06T08:06:13;17.60;;;7.73;;
56307;SDS011;42217;50.422;7.210;2024-03-06T08:08:42;12.63;;;8.60;;
56307;SDS011;42217;50.422;7.210;2024-03-06T08:11:11;11.70;;;7.10;;
56307;SDS011;42217;50.422;7.210;2024-03-06T08:13:38;10.80;;;6.00;;
56307;SDS011;42217;50.422;7.210;2024-03-06T08:16:04;12.10;;;5.23;;
56307;SDS011;42217;50.422;7.210;2024-03-06T08:18:31;8.77;;;4.50;;
56307;SDS011;42217;50.422;7.210;2024-03-06T08:20:58;8.00;;;4.00;;
56307;SDS011;42217;50.422;7.210;2024-03-06T08:23:24;5.90;;;3.80;;
56307;SDS011;42217;50.422;7.210;2024-03-06T08:25:50;4.77;;;3.43;;
56307;SDS011;42217;50.422;7.210;2024-03-06T08:28:16;6.40;;;3.23;;
56307;SDS011;42217;50.422;7.210;2024-03-06T08:30:42;4.23;;;2.77;;
56307;SDS011;42217;50.422;7.210;2024-03-06T08:33:09;5.83;;;4.27;;
56307;SDS011;42217;50.422;7.210;2024-03-06T08:35:35;6.67;;;3.07;;
56307;SDS011;42217;50.422;7.210;2024-03-06T08:38:01;3.57;;;2.90;;
56307;SDS011;42217;50.422;7.210;2024-03-06T08:40:27;8.77;;;2.93;;
56307;SDS011;42217;50.422;7.210;2024-03-06T08:42:53;5.23;;;2.60;;
56307;SDS011;42217;50.422;7.210;2024-03-06T08:45:19;8.77;;;2.20;;
56307;SDS011;42217;50.422;7.210;2024-03-06T08:47:45;3.33;;;3.00;;
56307;SDS011;42217;50.422;7.210;2024-03-06T08:50:13;3.37;;;2.53;;
56307;SDS011;42217;50.422;7.210;2024-03-06T08:52:40;6.93;;;3.07;;
56307;SDS011;42217;50.422;7.210;2024-03-06T08:55:09;5.50;;;3.00;;
56307;SDS011;42217;50.422;7.210;2024-03-06T08:57:36;5.90;;;2.97;;
56307;SDS011;42217;50.422;7.210;2024-03-06T09:00:05;4.90;;;2.70;;
56307;SDS011;42217;50.422;7.210;2024-03-06T09:02:36;5.00;;;2.93;;
56307;SDS011;42217;50.422;7.210;2024-03-06T09:05:04;7.87;;;3.40;;
56307;SDS011;42217;50.422;7.210;2024-03-06T09:07:30;3.90;;;2.27;;
56307;SDS011;42217;50.422;7.210;2024-03-06T09:09:56;5.07;;;2.70;;
56307;SDS011;42217;50.422;7.210;2024-03-06T09:12:22;3.23;;;2.40;;
56307;SDS011;42217;50.422;7.210;2024-03-06T09:14:48;7.23;;;2.50;;
56307;SDS011;42217;50.422;7.210;2024-03-06T09:17:14;2.33;;;2.10;;
56307;SDS011;42217;50.422;7.210;2024-03-06T09:19:40;5.20;;;2.10;;
56307;SDS011;42217;50.422;7.210;2024-03-06T09:22:06;5.90;;;2.70;;
56307;SDS011;42217;50.422;7.210;2024-03-06T09:24:32;3.10;;;2.40;;
56307;SDS011;42217;50.422;7.210;2024-03-06T09:27:00;3.20;;;2.40;;
56307;SDS011;42217;50.422;7.210;2024-03-06T09:29:26;2.73;;;1.93;;
56307;SDS011;42217;50.422;7.210;2024-03-06T09:31:52;6.43;;;2.57;;
56307;SDS011;42217;50.422;7.210;2024-03-06T09:34:18;2.40;;;2.20;;
56307;SDS011;42217;50.422;7.210;2024-03-06T09:36:46;2.77;;;2.00;;
56307;SDS011;42217;50.422;7.210;2024-03-06T09:39:14;3.90;;;2.30;;
56307;SDS011;42217;50.422;7.210;2024-03-06T09:41:43;3.50;;;2.13;;
56307;SDS011;42217;50.422;7.210;2024-03-06T09:44:10;2.87;;;2.20;;
56307;SDS011;42217;50.422;7.210;2024-03-06T09:46:36;2.53;;;2.23;;
56307;SDS011;42217;50.422;7.210;2024-03-06T09:49:01;2.73;;;1.83;;
56307;SDS011;42217;50.422;7.210;2024-03-06T09:51:27;1.77;;;1.67;;
56307;SDS011;42217;50.422;7.210;2024-03-06T09:53:53;3.20;;;1.60;;
56307;SDS011;42217;50.422;7.210;2024-03-06T09:56:19;5.13;;;1.80;;
56307;SDS011;42217;50.422;7.210;2024-03-06T09:58:45;3.17;;;1.80;;
56307;SDS011;42217;50.422;7.210;2024-03-06T10:01:12;2.73;;;1.50;;
56307;SDS011;42217;50.422;7.210;2024-03-06T10:03:39;1.53;;;1.43;;
56307;SDS011;42217;50.422;7.210;2024-03-06T10:06:08;1.60;;;1.50;;
56307;SDS011;42217;50.422;7.210;2024-03-06T10:08:34;1.60;;;1.50;;
56307;SDS011;42217;50.422;7.210;2024-03-06T10:11:00;1.97;;;1.50;;
56307;SDS011;42217;50.422;7.210;2024-03-06T10:13:26;1.70;;;1.60;;
56307;SDS011;42217;50.422;7.210;2024-03-06T10:15:59;1.50;;;1.40;;
56307;SDS011;42217;50.422;7.210;2024-03-06T10:18:35;5.23;;;1.70;;
56307;SDS011;42217;50.422;7.210;2024-03-06T10:21:03;2.00;;;1.90;;
56307;SDS011;42217;50.422;7.210;2024-03-06T10:23:30;1.93;;;1.60;;
56307;SDS011;42217;50.422;7.210;2024-03-06T10:25:56;4.53;;;2.07;;
56307;SDS011;42217;50.422;7.210;2024-03-06T10:28:23;6.47;;;2.10;;
56307;SDS011;42217;50.422;7.210;2024-03-06T10:30:49;7.23;;;2.50;;
56307;SDS011;42217;50.422;7.210;2024-03-06T10:33:17;4.40;;;2.10;;
56307;SDS011;42217;50.422;7.210;2024-03-06T10:35:44;4.43;;;2.47;;
56307;SDS011;42217;50.422;7.210;2024-03-06T10:38:11;4.20;;;2.30;;
56307;SDS011;42217;50.422;7.210;2024-03-06T10:40:38;4.27;;;2.73;;
56307;SDS011;42217;50.422;7.210;2024-03-06T10:43:08;3.97;;;2.33;;
56307;SDS011;42217;50.422;7.210;2024-03-06T10:48:12;3.50;;;2.50;;
56307;SDS011;42217;50.422;7.210;2024-03-06T10:50:42;3.77;;;2.53;;
56307;SDS011;42217;50.422;7.210;2024-03-06T10:53:10;3.33;;;2.40;;
56307;SDS011;42217;50.422;7.210;2024-03-06T10:55:40;5.57;;;2.23;;
56307;SDS011;42217;50.422;7.210;2024-03-06T10:58:09;9.37;;;2.27;;
56307;SDS011;42217;50.422;7.210;2024-03-06T11:00:39;3.10;;;2.13;;
56307;SDS011;42217;50.422;7.210;2024-03-06T11:03:06;2.60;;;2.07;;
56307;SDS011;42217;50.422;7.210;2024-03-06T11:05:36;2.20;;;1.83;;
56307;SDS011;42217;50.422;7.210;2024-03-06T11:08:05;2.53;;;1.93;;
56307;SDS011;42217;50.422;7.210;2024-03-06T11:10:37;2.33;;;2.10;;
56307;SDS011;42217;50.422;7.210;2024-03-06T11:15:46;4.50;;;2.47;;
56307;SDS011;42217;50.422;7.210;2024-03-06T11:23:24;3.53;;;2.30;;
56307;SDS011;42217;50.422;7.210;2024-03-06T11:28:16;4.83;;;3.13;;
56307;SDS011;42217;50.422;7.210;2024-03-06T11:30:46;8.07;;;2.90;;
56307;SDS011;42217;50.422;7.210;2024-03-06T11:33:15;4.37;;;2.97;;
56307;SDS011;42217;50.422;7.210;2024-03-06T11:35:41;4.93;;;3.07;;
56307;SDS011;42217;50.422;7.210;2024-03-06T11:38:16;4.80;;;2.67;;
56307;SDS011;42217;50.422;7.210;2024-03-06T11:40:43;4.47;;;3.03;;
56307;SDS011;42217;50.422;7.210;2024-03-06T11:43:24;4.40;;;2.73;;
56307;SDS011;42217;50.422;7.210;2024-03-06T11:45:51;3.13;;;2.20;;
56307;SDS011;42217;50.422;7.210;2024-03-06T11:48:17;3.03;;;2.73;;
56307;SDS011;42217;50.422;7.210;2024-03-06T11:50:46;3.97;;;2.07;;
56307;SDS011;42217;50.422;7.210;2024-03-06T11:53:12;3.33;;;2.97;;
56307;SDS011;42217;50.422;7.210;2024-03-06T11:55:39;7.13;;;2.50;;
56307;SDS011;42217;50.422;7.210;2024-03-06T11:58:05;5.60;;;2.33;;
56307;SDS011;42217;50.422;7.210;2024-03-06T12:00:33;3.27;;;2.20;;
56307;SDS011;42217;50.422;7.210;2024-03-06T12:02:58;5.13;;;2.13;;
56307;SDS011;42217;50.422;7.210;2024-03-06T12:05:24;3.93;;;2.77;;
56307;SDS011;42217;50.422;7.210;2024-03-06T12:07:52;3.37;;;2.73;;
56307;SDS011;42217;50.422;7.210;2024-03-06T12:10:17;2.87;;;2.50;;
56307;SDS011;42217;50.422;7.210;2024-03-06T12:12:44;3.53;;;2.47;;
56307;SDS011;42217;50.422;7.210;2024-03-06T12:15:10;6.10;;;3.10;;
56307;SDS011;42217;50.422;7.210;2024-03-06T12:17:47;3.10;;;2.63;;
56307;SDS011;42217;50.422;7.210;2024-03-06T12:20:16;4.33;;;2.80;;
56307;SDS011;42217;50.422;7.210;2024-03-06T12:22:52;5.70;;;2.53;;
56307;SDS011;42217;50.422;7.210;2024-03-06T12:25:23;2.90;;;2.00;;
56307;SDS011;42217;50.422;7.210;2024-03-06T12:27:50;3.67;;;2.00;;
56307;SDS011;42217;50.422;7.210;2024-03-06T12:30:18;5.90;;;2.10;;
56307;SDS011;42217;50.422;7.210;2024-03-06T12:32:55;2.90;;;2.43;;
56307;SDS011;42217;50.422;7.210;2024-03-06T12:35:25;1.37;;;1.20;;
56307;SDS011;42217;50.422;7.210;2024-03-06T12:37:51;3.03;;;1.23;;
56307;SDS011;42217;50.422;7.210;2024-03-06T12:40:18;1.73;;;1.03;;
56307;SDS011;42217;50.422;7.210;2024-03-06T12:42:44;2.77;;;1.80;;
56307;SDS011;42217;50.422;7.210;2024-03-06T12:45:11;3.50;;;1.83;;
56307;SDS011;42217;50.422;7.210;2024-03-06T12:47:41;4.17;;;2.13;;
56307;SDS011;42217;50.422;7.210;2024-03-06T12:50:07;2.83;;;1.40;;
56307;SDS011;42217;50.422;7.210;2024-03-06T12:52:33;1.20;;;1.20;;
56307;SDS011;42217;50.422;7.210;2024-03-06T12:54:59;3.27;;;1.77;;
56307;SDS011;42217;50.422;7.210;2024-03-06T12:57:26;4.40;;;1.00;;
56307;SDS011;42217;50.422;7.210;2024-03-06T12:59:52;1.70;;;1.60;;
56307;SDS011;42217;50.422;7.210;2024-03-06T13:02:18;4.33;;;1.63;;
56307;SDS011;42217;50.422;7.210;2024-03-06T13:04:44;1.43;;;1.33;;
56307;SDS011;42217;50.422;7.210;2024-03-06T13:07:10;2.63;;;1.67;;
56307;SDS011;42217;50.422;7.210;2024-03-06T13:09:36;2.43;;;1.43;;
56307;SDS011;42217;50.422;7.210;2024-03-06T13:12:03;2.43;;;1.50;;
56307;SDS011;42217;50.422;7.210;2024-03-06T13:14:31;2.40;;;1.30;;
56307;SDS011;42217;50.422;7.210;2024-03-06T13:16:57;2.87;;;1.90;;
56307;SDS011;42217;50.422;7.210;2024-03-06T13:19:23;3.33;;;1.70;;
56307;SDS011;42217;50.422;7.210;2024-03-06T13:21:49;2.60;;;1.60;;
56307;SDS011;42217;50.422;7.210;2024-03-06T13:24:14;3.30;;;1.60;;
56307;SDS011;42217;50.422;7.210;2024-03-06T13:26:40;3.97;;;1.50;;
56307;SDS011;42217;50.422;7.210;2024-03-06T13:29:09;4.13;;;1.40;;
56307;SDS011;42217;50.422;7.210;2024-03-06T13:31:35;2.63;;;1.20;;
56307;SDS011;42217;50.422;7.210;2024-03-06T13:34:01;3.60;;;1.20;;
56307;SDS011;42217;50.422;7.210;2024-03-06T13:36:28;1.20;;;1.10;;
56307;SDS011;42217;50.422;7.210;2024-03-06T13:38:54;1.77;;;1.03;;
56307;SDS011;42217;50.422;7.210;2024-03-06T13:41:20;2.43;;;1.17;;
56307;SDS011;42217;50.422;7.210;2024-03-06T13:43:46;2.28;;;1.13;;
56307;SDS011;42217;50.422;7.210;2024-03-06T13:46:12;1.00;;;0.90;;
56307;SDS011;42217;50.422;7.210;2024-03-06T13:48:37;1.20;;;1.10;;
56307;SDS011;42217;50.422;7.210;2024-03-06T13:51:03;3.77;;;1.33;;
56307;SDS011;42217;50.422;7.210;2024-03-06T13:53:30;3.70;;;1.23;;
56307;SDS011;42217;50.422;7.210;2024-03-06T13:55:56;2.53;;;1.10;;
56307;SDS011;42217;50.422;7.210;2024-03-06T13:58:22;0.60;;;0.52;;
56307;SDS011;42217;50.422;7.210;2024-03-06T14:00:48;0.80;;;0.80;;
56307;SDS011;42217;50.422;7.210;2024-03-06T14:03:14;1.47;;;1.37;;
56307;SDS011;42217;50.422;7.210;2024-03-06T14:05:39;0.97;;;0.97;;
56307;SDS011;42217;50.422;7.210;2024-03-06T14:08:05;1.90;;;1.13;;
56307;SDS011;42217;50.422;7.210;2024-03-06T14:10:32;2.53;;;1.20;;
56307;SDS011;42217;50.422;7.210;2024-03-06T14:13:02;1.83;;;1.37;;
56307;SDS011;42217;50.422;7.210;2024-03-06T14:15:28;1.53;;;1.00;;
56307;SDS011;42217;50.422;7.210;2024-03-06T14:17:53;2.70;;;1.20;;
56307;SDS011;42217;50.422;7.210;2024-03-06T14:20:19;3.17;;;1.10;;
56307;SDS011;42217;50.422;7.210;2024-03-06T14:22:45;0.90;;;0.90;;
56307;SDS011;42217;50.422;7.210;2024-03-06T14:25:12;2.45;;;0.73;;
56307;SDS011;42217;50.422;7.210;2024-03-06T14:27:38;1.85;;;1.00;;
56307;SDS011;42217;50.422;7.210;2024-03-06T14:30:04;1.42;;;0.80;;
56307;SDS011;42217;50.422;7.210;2024-03-06T14:32:36;1.83;;;0.55;;
56307;SDS011;42217;50.422;7.210;2024-03-06T14:35:01;1.40;;;0.90;;
56307;SDS011;42217;50.422;7.210;2024-03-06T14:37:27;1.17;;;0.80;;
56307;SDS011;42217;50.422;7.210;2024-03-06T14:39:56;1.35;;;0.90;;
56307;SDS011;42217;50.422;7.210;2024-03-06T14:42:21;1.95;;;0.68;;
56307;SDS011;42217;50.422;7.210;2024-03-06T14:44:48;3.25;;;1.13;;
56307;SDS011;42217;50.422;7.210;2024-03-06T14:47:14;3.35;;;1.02;;
56307;SDS011;42217;50.422;7.210;2024-03-06T14:49:41;3.70;;;1.90;;
56307;SDS011;42217;50.422;7.210;2024-03-06T14:52:09;3.20;;;2.28;;
56307;SDS011;42217;50.422;7.210;2024-03-06T14:54:35;2.42;;;2.20;;
56307;SDS011;42217;50.422;7.210;2024-03-06T14:57:01;4.07;;;2.20;;